CPX438 Details

Departure: Philadelphia International Airport (KPHL)
Arrival: Chicago/Rockford International Airport (KRFD) at N/A
Route: PTW SARAA RAV PSB J60 JOT QUOTE
Notes:


Current Weather Information
KPHL 171654Z 05004KT 10SM SCT031 SCT050 31/22 A3000 RMK AO2 SLP159 T03060222
KRFD 171654Z 10007KT 10SM FEW040 BKN150 BKN250 24/19 A2991 RMK AO2 SLP124 T02390194